Time;durP1;ratioP1;P1;durP2;ratioP2;P2;SDS_P1;SDS_P2;PMS_P1;PMS_P2;Temp;Humidity;BMP_temperature;BMP_pressure;BME280_temperature;BME280_humidity;BME280_pressure;Samples;Min_cycle;Max_cycle;Signal;HPM_P1;HPM_P2
2021/04/04 00:00:19;;;;;;;5.90;3.20;;;;;;;4.78;63.39;99329.16;4933269;28;102892;-89
2021/04/04 00:02:51;;;;;;;8.50;4.17;;;;;;;4.28;65.62;99328.47;4933717;28;101709;-91
2021/04/04 00:05:19;;;;;;;6.90;4.27;;;;;;;4.31;65.60;99333.59;4933542;28;101708;-92
2021/04/04 00:07:46;;;;;;;6.47;4.10;;;;;;;4.45;64.36;99326.94;4931804;28;102909;-91
2021/04/04 00:10:14;;;;;;;6.07;3.63;;;;;;;4.64;62.84;99324.44;4931332;28;104546;-89
2021/04/04 00:12:42;;;;;;;7.07;4.40;;;;;;;3.88;66.25;99324.69;4933688;28;102456;-92
2021/04/04 00:15:12;;;;;;;5.63;4.20;;;;;;;4.20;64.71;99330.50;4934697;28;101745;-89
2021/04/04 00:17:39;;;;;;;5.43;4.50;;;;;;;4.27;64.86;99324.97;4934111;28;103021;-90
2021/04/04 00:20:08;;;;;;;6.70;3.77;;;;;;;4.40;64.64;99328.88;4917823;28;102656;-91
2021/04/04 00:22:36;;;;;;;10.17;4.60;;;;;;;4.22;65.72;99328.69;4913825;28;102251;-89
2021/04/04 00:25:05;;;;;;;8.03;4.43;;;;;;;3.71;68.16;99321.78;4914198;28;102413;-90
2021/04/04 00:27:32;;;;;;;5.90;3.50;;;;;;;4.05;65.98;99322.31;4916065;28;103209;-92
2021/04/04 00:30:00;;;;;;;6.77;3.90;;;;;;;3.94;66.29;99324.47;4933712;28;103182;-89
2021/04/04 00:32:28;;;;;;;8.07;4.33;;;;;;;4.09;66.13;99321.31;4932183;28;102513;-90
2021/04/04 00:34:55;;;;;;;6.83;4.40;;;;;;;4.17;64.95;99326.25;4915528;28;102432;-91
2021/04/04 00:37:22;;;;;;;7.40;4.17;;;;;;;3.99;65.49;99316.44;4914197;28;103694;-88
2021/04/04 00:39:50;;;;;;;5.87;4.03;;;;;;;4.09;65.35;99328.28;4932750;28;103172;-90
2021/04/04 00:42:17;;;;;;;4.07;2.87;;;;;;;4.15;64.81;99327.22;4933063;28;102384;-90
2021/04/04 00:44:44;;;;;;;4.47;3.10;;;;;;;4.17;64.79;99320.16;4932912;28;102593;-90
2021/04/04 00:47:12;;;;;;;7.57;3.53;;;;;;;4.19;64.26;99315.72;4932568;28;102790;-90
2021/04/04 00:49:39;;;;;;;5.37;3.27;;;;;;;4.15;64.88;99317.63;4933408;28;102945;-89
2021/04/04 00:52:06;;;;;;;4.03;2.80;;;;;;;4.09;64.64;99317.84;4914972;28;102342;-89
2021/04/04 00:54:34;;;;;;;5.50;3.67;;;;;;;4.04;64.62;99320.59;4915800;28;102584;-90
2021/04/04 00:57:01;;;;;;;5.60;3.20;;;;;;;4.05;64.34;99317.09;4933427;28;102796;-90
2021/04/04 00:59:28;;;;;;;6.60;3.77;;;;;;;3.84;65.67;99323.09;4916598;28;102716;-90
2021/04/04 01:01:55;;;;;;;6.47;3.37;;;;;;;3.75;65.91;99318.19;4930476;28;102274;-88
2021/04/04 01:04:23;;;;;;;8.10;4.07;;;;;;;3.59;66.99;99317.03;4971488;28;101664;-89
2021/04/04 01:06:50;;;;;;;7.27;4.00;;;;;;;3.17;68.29;99313.22;4968570;28;102916;-88
2021/04/04 01:09:20;;;;;;;5.07;3.83;;;;;;;3.45;67.62;99309.63;4967283;28;102960;-88
2021/04/04 01:11:57;;;;;;;4.83;3.17;;;;;;;3.65;65.77;99315.94;4969057;28;101481;-88
2021/04/04 01:14:30;;;;;;;6.23;3.97;;;;;;;3.66;66.57;99308.03;4951999;28;102356;-88
2021/04/04 01:17:01;;;;;;;6.03;3.40;;;;;;;3.73;65.19;99309.56;4949680;28;102212;-90
2021/04/04 01:19:57;;;;;;;7.47;3.73;;;;;;;3.76;65.48;99313.81;4948994;28;103081;-89
2021/04/04 01:22:50;;;;;;;8.47;3.90;;;;;;;3.66;66.37;99312.41;4956073;28;102052;-91
2021/04/04 01:25:22;;;;;;;7.07;4.40;;;;;;;3.58;66.78;99317.91;4955021;28;102315;-90
2021/04/04 01:27:53;;;;;;;6.73;4.07;;;;;;;3.39;67.45;99316.84;4950610;28;105182;-91
2021/04/04 01:30:22;;;;;;;4.93;3.17;;;;;;;3.51;66.37;99308.56;4951182;28;102705;-89
2021/04/04 01:32:51;;;;;;;5.63;3.30;;;;;;;3.56;66.71;99317.13;4943046;28;102431;-90
2021/04/04 01:35:21;;;;;;;4.63;3.17;;;;;;;3.42;66.84;99317.56;4951791;28;102529;-92
2021/04/04 01:37:53;;;;;;;7.03;4.27;;;;;;;3.38;67.38;99317.72;4935583;28;102866;-90
2021/04/04 01:40:24;;;;;;;4.47;3.60;;;;;;;3.36;67.56;99320.41;4936354;28;103722;-91
2021/04/04 01:42:53;;;;;;;4.63;2.83;;;;;;;3.46;66.94;99310.47;4936368;28;102351;-90
2021/04/04 01:45:21;;;;;;;4.37;3.00;;;;;;;3.39;67.09;99309.00;4935748;28;102521;-91
2021/04/04 01:47:50;;;;;;;8.50;3.83;;;;;;;3.46;66.72;99310.47;4934969;28;103933;-90
2021/04/04 01:50:17;;;;;;;5.10;3.33;;;;;;;3.37;67.20;99316.88;4934996;28;102398;-91
2021/04/04 01:52:47;;;;;;;7.53;3.17;;;;;;;3.40;66.63;99310.69;4915358;28;102597;-90
2021/04/04 01:55:14;;;;;;;5.60;2.67;;;;;;;3.46;66.54;99313.09;4933800;28;102573;-91
2021/04/04 01:57:42;;;;;;;6.20;2.93;;;;;;;3.47;66.44;99312.19;4934960;28;102877;-90
2021/04/04 02:00:13;;;;;;;5.37;3.13;;;;;;;3.49;66.66;99307.78;4934791;28;102543;-89
2021/04/04 02:02:42;;;;;;;3.20;2.50;;;;;;;3.49;66.60;99306.00;4934521;28;102466;-92
2021/04/04 02:05:10;;;;;;;6.73;3.50;;;;;;;3.46;67.26;99305.25;4935749;28;102443;-90
2021/04/04 02:07:41;;;;;;;5.47;3.23;;;;;;;3.50;66.30;99302.50;4952712;28;102783;-90
2021/04/04 02:10:10;;;;;;;5.00;3.23;;;;;;;3.43;66.87;99292.28;4936218;28;102616;-90
2021/04/04 02:12:37;;;;;;;6.27;3.40;;;;;;;3.46;66.96;99298.28;4918140;28;102509;-87
2021/04/04 02:15:06;;;;;;;5.50;3.20;;;;;;;3.50;66.71;99292.06;4934795;28;102407;-88
2021/04/04 02:17:37;;;;;;;6.10;3.10;;;;;;;3.47;66.62;99296.53;4934570;28;103444;-89
2021/04/04 02:20:06;;;;;;;6.13;3.47;;;;;;;3.24;68.29;99293.84;4935482;28;102855;-90
2021/04/04 02:22:34;;;;;;;5.90;3.70;;;;;;;2.96;69.89;99298.25;4935058;28;102679;-90
2021/04/04 02:25:02;;;;;;;5.67;3.00;;;;;;;2.91;69.62;99291.44;4950738;28;102575;-90
2021/04/04 02:27:29;;;;;;;6.27;3.37;;;;;;;3.02;68.72;99290.22;4935086;28;104020;-89
2021/04/04 02:29:56;;;;;;;4.93;3.13;;;;;;;3.06;67.96;99290.06;4935201;28;103796;-90
2021/04/04 02:32:26;;;;;;;4.80;3.07;;;;;;;3.14;67.84;99297.66;4935609;28;102537;-89
2021/04/04 02:34:58;;;;;;;3.90;2.30;;;;;;;3.19;67.45;99291.38;4918147;28;102559;-89
2021/04/04 02:37:25;;;;;;;4.57;2.67;;;;;;;3.29;66.91;99287.56;4934870;28;102887;-90
2021/04/04 02:39:59;;;;;;;5.37;2.97;;;;;;;3.30;67.21;99294.50;4934635;28;102476;-90
2021/04/04 02:42:28;;;;;;;5.07;3.60;;;;;;;3.11;68.14;99290.78;4933723;28;102456;-90
2021/04/04 02:44:58;;;;;;;7.07;4.00;;;;;;;2.54;70.93;99288.28;4935102;28;102568;-89
2021/04/04 02:47:33;;;;;;;5.23;4.07;;;;;;;2.52;70.53;99290.09;4934705;28;102797;-91
2021/04/04 02:50:02;;;;;;;4.47;3.30;;;;;;;2.52;71.11;99284.88;4933583;28;103077;-90
2021/04/04 02:52:36;;;;;;;5.50;3.00;;;;;;;2.76;69.40;99291.91;4933134;28;102589;-92
2021/04/04 02:55:06;;;;;;;4.53;2.80;;;;;;;2.84;69.41;99289.91;4934490;28;102396;-90
2021/04/04 02:57:34;;;;;;;4.50;2.53;;;;;;;2.92;69.17;99285.28;4934140;28;102586;-90
2021/04/04 03:00:05;;;;;;;4.87;3.50;;;;;;;2.88;69.16;99286.31;4933772;28;103402;-91
2021/04/04 03:02:33;;;;;;;6.30;3.80;;;;;;;2.51;71.24;99280.53;4932533;28;102661;-90
2021/04/04 03:05:03;;;;;;;5.53;3.20;;;;;;;2.56;70.57;99281.25;4934007;28;102350;-90
2021/04/04 03:07:31;;;;;;;2.87;2.40;;;;;;;2.68;69.50;99283.47;4932053;28;102947;-92
2021/04/04 03:10:02;;;;;;;5.07;2.83;;;;;;;2.80;69.14;99290.94;4933184;28;103885;-90
2021/04/04 03:12:30;;;;;;;7.53;3.90;;;;;;;2.46;70.94;99290.25;4933993;28;102531;-90
2021/04/04 03:14:59;;;;;;;4.33;3.73;;;;;;;2.25;72.10;99286.53;4935013;28;102487;-91
2021/04/04 03:17:28;;;;;;;5.17;3.47;;;;;;;2.32;71.63;99284.59;4934681;28;102977;-90
2021/04/04 03:19:57;;;;;;;4.30;3.10;;;;;;;2.41;71.14;99284.34;4933654;28;103601;-88
2021/04/04 03:22:27;;;;;;;4.90;3.33;;;;;;;2.51;70.31;99284.88;4900388;28;102431;-90
2021/04/04 03:24:55;;;;;;;5.53;2.90;;;;;;;2.56;70.78;99293.44;4941121;28;102573;-91
2021/04/04 03:27:23;;;;;;;4.00;2.87;;;;;;;2.59;69.89;99293.34;4937107;28;102886;-89
2021/04/04 03:29:51;;;;;;;3.97;2.87;;;;;;;2.55;70.35;99297.81;4934210;28;102723;-89
2021/04/04 03:32:18;;;;;;;5.37;3.00;;;;;;;2.65;69.79;99294.00;4932568;28;102496;-89
2021/04/04 03:34:45;;;;;;;5.23;3.03;;;;;;;2.56;70.29;99294.28;4933219;28;102693;-90
2021/04/04 03:37:14;;;;;;;5.83;4.20;;;;;;;2.33;71.35;99300.19;4932864;28;104254;-91
2021/04/04 03:39:43;;;;;;;3.40;2.77;;;;;;;2.40;71.20;99290.44;4933366;28;104148;-89
2021/04/04 03:42:11;;;;;;;6.80;3.77;;;;;;;2.12;72.58;99297.38;4933026;28;102493;-90
2021/04/04 03:44:40;;;;;;;4.73;3.40;;;;;;;2.09;72.64;99298.31;4933441;28;102839;-89
2021/04/04 03:47:08;;;;;;;4.50;3.10;;;;;;;2.17;72.17;99290.25;4932843;28;103947;-89
2021/04/04 03:49:38;;;;;;;5.47;3.33;;;;;;;2.14;72.39;99286.00;4933094;28;104216;-90
2021/04/04 03:52:08;;;;;;;5.77;2.93;;;;;;;2.26;71.54;99290.00;4933698;28;102482;-90
2021/04/04 03:54:36;;;;;;;5.13;3.43;;;;;;;2.03;72.73;99293.28;4933066;28;102471;-90
2021/04/04 03:57:06;;;;;;;5.10;3.37;;;;;;;2.00;73.69;99292.50;4936585;28;103005;-88
2021/04/04 03:59:38;;;;;;;5.47;3.80;;;;;;;1.81;74.28;99292.16;4940582;28;103227;-89
2021/04/04 04:02:07;;;;;;;5.43;3.67;;;;;;;1.67;74.80;99302.13;4922276;28;102369;-91
2021/04/04 04:04:35;;;;;;;3.90;2.90;;;;;;;1.86;73.65;99295.50;4936125;28;102411;-90
2021/04/04 04:07:05;;;;;;;5.63;2.73;;;;;;;2.10;72.37;99304.38;4933503;28;102281;-89
2021/04/04 04:09:33;;;;;;;6.10;3.20;;;;;;;2.22;71.47;99296.19;4932526;28;103760;-90
2021/04/04 04:12:02;;;;;;;5.37;3.60;;;;;;;2.26;71.23;99301.28;4915305;28;102729;-89
2021/04/04 04:14:31;;;;;;;6.77;3.67;;;;;;;2.06;72.74;99298.41;4932658;28;102501;-89
2021/04/04 04:16:59;;;;;;;3.93;2.93;;;;;;;2.13;71.57;99299.09;4915670;28;102883;-90
2021/04/04 04:19:26;;;;;;;5.13;3.27;;;;;;;1.86;73.88;99292.03;4932122;28;103346;-90
2021/04/04 04:21:53;;;;;;;8.23;3.67;;;;;;;1.83;73.72;99294.72;4931352;28;102539;-89
2021/04/04 04:24:21;;;;;;;5.73;3.27;;;;;;;1.82;73.59;99293.03;4914728;28;102695;-89
2021/04/04 04:26:49;;;;;;;6.03;3.33;;;;;;;1.85;73.20;99288.59;4934010;28;102814;-88
2021/04/04 04:29:19;;;;;;;5.37;3.20;;;;;;;1.92;72.80;99289.25;4932950;28;103771;-89
2021/04/04 04:31:51;;;;;;;4.43;3.03;;;;;;;1.79;74.07;99291.38;4941529;28;102414;-91
2021/04/04 04:34:21;;;;;;;6.13;3.63;;;;;;;1.17;76.63;99298.25;4952166;28;102496;-90
2021/04/04 04:36:49;;;;;;;8.60;3.93;;;;;;;1.24;77.38;99288.50;4930773;28;102856;-89
2021/04/04 04:39:16;;;;;;;7.93;3.30;;;;;;;1.45;75.97;99294.03;4932076;28;104179;-89
2021/04/04 04:41:46;;;;;;;5.07;3.27;;;;;;;1.46;74.98;99298.31;4931634;28;102585;-90
2021/04/04 04:44:15;;;;;;;3.57;2.93;;;;;;;1.66;73.96;99293.44;4931819;28;102530;-90
2021/04/04 04:46:43;;;;;;;3.70;2.80;;;;;;;1.84;73.11;99296.44;4929413;28;103983;-90
2021/04/04 04:49:12;;;;;;;4.77;4.07;;;;;;;1.40;75.54;99290.69;4931533;28;102769;-90
2021/04/04 04:51:40;;;;;;;5.17;3.57;;;;;;;1.47;75.04;99294.84;4931558;28;102538;-90
2021/04/04 04:54:08;;;;;;;6.10;3.67;;;;;;;1.49;75.08;99289.56;4931574;28;102669;-89
2021/04/04 04:56:38;;;;;;;6.47;3.50;;;;;;;1.49;75.24;99300.84;4931461;28;103984;-90
2021/04/04 04:59:06;;;;;;;5.57;3.43;;;;;;;1.29;75.47;99299.69;4931787;28;103003;-90
2021/04/04 05:01:39;;;;;;;5.80;3.67;;;;;;;1.28;76.01;99296.22;4932007;28;102385;-90
2021/04/04 05:04:07;;;;;;;5.90;3.83;;;;;;;1.36;75.72;99291.66;4932086;28;103488;-89
2021/04/04 05:06:35;;;;;;;5.37;2.83;;;;;;;1.50;75.03;99292.16;4931384;28;103926;-89
2021/04/04 05:09:05;;;;;;;9.07;3.70;;;;;;;1.32;75.57;99287.41;4931511;28;102631;-90
2021/04/04 05:11:35;;;;;;;5.07;3.67;;;;;;;1.07;77.05;99296.75;4930174;28;102517;-89
2021/04/04 05:14:02;;;;;;;6.17;3.67;;;;;;;0.97;77.95;99303.94;4931423;28;102427;-89
2021/04/04 05:16:31;;;;;;;6.57;3.70;;;;;;;1.02;77.90;99303.81;4932390;28;102854;-89
2021/04/04 05:18:59;;;;;;;5.10;3.33;;;;;;;1.34;76.72;99298.66;4926565;28;105448;-90
2021/04/04 05:21:28;;;;;;;4.17;2.90;;;;;;;1.60;74.89;99295.38;4944671;28;102466;-89
2021/04/04 05:23:57;;;;;;;4.17;3.10;;;;;;;1.83;74.03;99299.94;4946282;28;101772;-90
2021/04/04 05:26:28;;;;;;;4.47;3.10;;;;;;;1.99;73.09;99296.03;4944275;28;102574;-90
2021/04/04 05:34:52;;;;;;;3.03;2.73;;;;;;;2.29;71.26;99306.41;5308955;22;103182;-91
2021/04/04 05:37:19;;;;;;;6.03;2.87;;;;;;;2.37;71.71;99310.53;4993778;28;102277;-90
2021/04/04 05:39:47;;;;;;;4.03;2.80;;;;;;;2.41;71.16;99306.94;5292780;22;106267;-81
2021/04/04 05:42:22;;;;;;;8.40;4.40;;;;;;;2.43;70.79;99300.78;4950090;28;102796;-82
2021/04/04 05:45:19;;;;;;;12.53;7.20;;;;;;;2.45;71.35;99301.59;4981056;28;103106;-79
2021/04/04 05:47:57;;;;;;;10.97;6.93;;;;;;;2.51;70.94;99301.41;4983226;28;103133;-80
2021/04/04 05:50:31;;;;;;;13.27;7.23;;;;;;;2.51;71.96;99292.72;4988249;28;104070;-82
2021/04/04 05:53:05;;;;;;;11.10;6.57;;;;;;;2.58;71.47;99302.09;4991784;28;103162;-80
2021/04/04 05:58:45;;;;;;;9.33;6.00;;;;;;;2.88;70.65;99291.53;5108444;22;103751;-88
2021/04/04 06:01:26;;;;;;;7.07;5.03;;;;;;;3.02;70.40;99287.63;4952255;28;102488;-85
2021/04/04 06:04:03;;;;;;;5.80;5.00;;;;;;;3.19;70.05;99303.59;4978925;28;102704;-90
2021/04/04 06:09:46;;;;;;;6.20;5.27;;;;;;;3.51;70.08;99298.13;5965931;23;104439;-80
2021/04/04 06:12:23;;;;;;;10.97;6.00;;;;;;;3.61;69.90;99299.53;4990788;28;102886;-91
2021/04/04 06:17:51;;;;;;;7.80;5.77;;;;;;;3.60;71.06;99292.56;5189401;22;103924;-87
2021/04/04 06:20:36;;;;;;;6.77;4.13;;;;;;;3.87;69.32;99285.53;5167504;22;106022;-89
2021/04/04 06:23:17;;;;;;;7.47;4.37;;;;;;;3.99;68.80;99296.38;5085990;22;102675;-89
2021/04/04 06:25:57;;;;;;;6.83;4.73;;;;;;;3.94;68.24;99285.25;5001535;28;102396;-92
2021/04/04 06:28:38;;;;;;;5.87;4.13;;;;;;;3.99;69.02;99291.16;4983086;28;102512;-89
2021/04/04 06:31:17;;;;;;;7.43;4.73;;;;;;;4.20;67.93;99286.03;4988523;28;104101;-92
2021/04/04 06:33:49;;;;;;;8.57;4.87;;;;;;;4.32;67.50;99283.84;4993379;28;103044;-91
2021/04/04 06:36:30;;;;;;;7.47;4.20;;;;;;;4.44;67.39;99279.88;5001101;28;102584;-88
2021/04/04 06:39:05;;;;;;;7.27;3.97;;;;;;;4.60;67.08;99267.91;4997532;28;102222;-91
2021/04/04 06:42:01;;;;;;;9.80;4.90;;;;;;;4.41;68.21;99278.22;4997790;28;103320;-90
2021/04/04 06:44:39;;;;;;;8.43;5.27;;;;;;;4.46;68.15;99280.69;4996900;28;101885;-90
2021/04/04 06:47:14;;;;;;;6.83;4.40;;;;;;;4.51;67.73;99283.97;5005109;28;102116;-93
2021/04/04 06:59:02;;;;;;;4.83;3.80;;;;;;;5.30;63.73;99279.00;5614101;22;104889;-92
2021/04/04 07:01:55;;;;;;;5.10;3.40;;;;;;;5.56;63.08;99289.22;4946281;28;102617;-93
2021/04/04 07:04:28;;;;;;;6.77;3.87;;;;;;;5.53;62.77;99285.91;4960322;28;105305;-92
2021/04/04 07:07:23;;;;;;;5.93;3.17;;;;;;;5.96;62.08;99293.63;4975851;28;102692;-93
2021/04/04 07:10:04;;;;;;;7.07;4.33;;;;;;;6.05;61.96;99281.88;4974353;28;102881;-87
2021/04/04 07:12:53;;;;;;;7.90;4.03;;;;;;;6.12;62.22;99286.75;4966829;28;103308;-79
2021/04/04 07:15:40;;;;;;;7.27;4.07;;;;;;;6.34;60.89;99284.84;4969000;28;103399;-78
2021/04/04 07:18:31;;;;;;;7.50;3.83;;;;;;;6.57;60.86;99285.59;4974058;28;104740;-80
2021/04/04 07:21:18;;;;;;;5.67;3.10;;;;;;;6.78;60.18;99289.81;4967853;28;102584;-77
2021/04/04 07:24:00;;;;;;;3.80;3.40;;;;;;;7.13;59.33;99283.69;4968107;28;102553;-80
2021/04/04 07:26:42;;;;;;;4.97;3.63;;;;;;;7.42;57.90;99277.84;4950254;28;106248;-78
2021/04/04 07:29:36;;;;;;;5.87;3.80;;;;;;;7.03;57.99;99282.47;4960022;28;103703;-78
2021/04/04 07:32:09;;;;;;;6.30;3.83;;;;;;;6.93;59.03;99278.59;4964345;28;103039;-79
2021/04/04 07:34:46;;;;;;;7.00;3.70;;;;;;;7.09;57.90;99279.53;4940391;28;102785;-81
2021/04/04 07:37:27;;;;;;;8.10;3.90;;;;;;;7.74;57.21;99283.25;4921489;28;107152;-79
2021/04/04 07:40:02;;;;;;;6.67;3.83;;;;;;;8.02;55.42;99283.53;4965451;28;103643;-77
2021/04/04 07:42:37;;;;;;;5.10;3.30;;;;;;;8.84;54.76;99282.53;4976031;28;102548;-80
2021/04/04 07:45:13;;;;;;;7.47;4.27;;;;;;;7.98;53.78;99282.81;4964366;28;102594;-80
2021/04/04 07:47:48;;;;;;;6.13;3.70;;;;;;;7.81;54.31;99279.38;4967048;28;103766;-78
2021/04/04 07:50:24;;;;;;;6.43;4.13;;;;;;;8.16;53.21;99291.53;4970218;28;104030;-77
2021/04/04 07:52:56;;;;;;;6.77;4.10;;;;;;;8.37;53.43;99286.91;4967457;28;102686;-78
2021/04/04 07:55:32;;;;;;;5.33;4.27;;;;;;;8.55;54.30;99273.63;4979794;28;103023;-80
2021/04/04 07:58:10;;;;;;;6.07;4.13;;;;;;;9.33;53.65;99284.06;4957851;28;103565;-76
2021/04/04 08:00:42;;;;;;;7.37;4.13;;;;;;;9.16;53.00;99280.69;4968214;28;103798;-78
2021/04/04 08:03:14;;;;;;;6.30;4.23;;;;;;;9.96;50.95;99278.56;4950164;28;102713;-76
2021/04/04 08:05:46;;;;;;;6.60;4.10;;;;;;;10.41;50.34;99274.91;4952445;28;102651;-79
2021/04/04 08:08:20;;;;;;;6.37;3.57;;;;;;;10.00;51.77;99276.56;4951767;28;103203;-77
2021/04/04 08:11:20;;;;;;;6.37;3.90;;;;;;;10.52;49.36;99275.09;4954353;28;103226;-77
2021/04/04 08:13:57;;;;;;;7.90;4.37;;;;;;;10.63;50.35;99275.25;4944340;28;102805;-78
2021/04/04 08:16:43;;;;;;;6.33;4.33;;;;;;;10.40;50.97;99270.56;4947553;28;102633;-77
2021/04/04 08:19:10;;;;;;;8.13;3.97;;;;;;;11.19;50.73;99276.88;4928728;28;103740;-78
2021/04/04 08:21:43;;;;;;;6.73;4.30;;;;;;;11.85;49.75;99268.88;4925572;28;104172;-77
2021/04/04 08:24:14;;;;;;;6.40;4.17;;;;;;;10.89;49.23;99271.78;4941537;28;102968;-77
2021/04/04 08:26:47;;;;;;;7.97;4.87;;;;;;;11.71;48.63;99260.19;4929290;28;102845;-78
2021/04/04 08:29:25;;;;;;;6.40;4.33;;;;;;;12.37;48.37;99271.41;4950489;28;102944;-80
2021/04/04 08:32:09;;;;;;;6.97;4.40;;;;;;;12.65;47.81;99259.69;4951729;28;106605;-79
2021/04/04 08:34:39;;;;;;;6.23;3.73;;;;;;;11.64;48.36;99270.31;4967661;28;102687;-78
2021/04/04 08:37:15;;;;;;;7.10;4.63;;;;;;;11.38;49.35;99268.56;4968671;28;102824;-78
2021/04/04 08:39:51;;;;;;;9.03;4.47;;;;;;;11.23;48.59;99269.59;4961037;28;103147;-76
2021/04/04 08:42:19;;;;;;;6.43;3.77;;;;;;;12.69;47.34;99271.75;4962329;28;103805;-78
2021/04/04 08:44:54;;;;;;;4.97;3.57;;;;;;;13.92;44.12;99260.75;4947542;28;102644;-79
2021/04/04 08:47:27;;;;;;;5.87;4.00;;;;;;;14.44;43.31;99262.88;4965229;28;102934;-80
2021/04/04 08:49:56;;;;;;;9.97;4.77;;;;;;;14.39;42.89;99262.38;4965787;28;104133;-77
2021/04/04 08:52:31;;;;;;;8.57;5.07;;;;;;;12.27;45.68;99265.06;4966808;28;103819;-78
2021/04/04 08:54:58;;;;;;;9.03;4.53;;;;;;;11.73;47.43;99263.59;4969196;28;102521;-76
2021/04/04 08:57:30;;;;;;;7.13;4.63;;;;;;;12.43;46.04;99264.84;4968250;28;104784;-78
2021/04/04 09:00:03;;;;;;;7.20;4.70;;;;;;;12.55;46.51;99263.94;4968867;28;105492;-77
2021/04/04 09:02:36;;;;;;;8.73;4.60;;;;;;;12.03;46.49;99257.03;4952829;28;105885;-77
2021/04/04 09:05:12;;;;;;;10.03;5.53;;;;;;;11.80;46.49;99252.47;4980907;28;102539;-78
2021/04/04 09:07:43;;;;;;;7.33;4.33;;;;;;;12.95;46.73;99260.13;4967774;28;102712;-76
2021/04/04 09:10:16;;;;;;;6.43;4.27;;;;;;;12.21;46.60;99261.03;4966802;28;103863;-79
2021/04/04 09:12:45;;;;;;;7.03;4.80;;;;;;;13.54;44.64;99250.41;4967989;28;103129;-78
2021/04/04 09:15:15;;;;;;;6.43;4.90;;;;;;;14.29;44.24;99254.25;4945248;28;102681;-77
2021/04/04 09:17:51;;;;;;;6.20;4.43;;;;;;;13.42;45.10;99245.19;4967939;28;103310;-78
2021/04/04 09:20:36;;;;;;;6.10;4.40;;;;;;;14.38;43.77;99242.94;4970781;28;104120;-78
2021/04/04 09:23:05;;;;;;;7.23;4.70;;;;;;;15.14;42.04;99247.38;4972389;28;104188;-78
2021/04/04 09:25:37;;;;;;;6.57;4.53;;;;;;;15.16;42.77;99240.09;4960479;28;102852;-78
2021/04/04 09:28:07;;;;;;;7.37;4.50;;;;;;;14.79;41.79;99244.09;4950542;28;104628;-78
2021/04/04 09:30:41;;;;;;;7.73;4.53;;;;;;;15.93;40.55;99235.38;4964994;28;103955;-77
2021/04/04 09:33:19;;;;;;;7.10;4.30;;;;;;;16.23;42.00;99230.06;4976987;28;103787;-77
2021/04/04 09:36:00;;;;;;;7.47;4.90;;;;;;;15.97;41.28;99232.31;4979013;28;102627;-78
2021/04/04 09:38:30;;;;;;;8.33;5.60;;;;;;;14.99;41.69;99232.66;4961405;28;103058;-77
2021/04/04 09:40:59;;;;;;;7.03;4.87;;;;;;;14.32;42.39;99238.09;4954201;28;104197;-77
2021/04/04 09:43:27;;;;;;;6.13;4.50;;;;;;;12.78;43.15;99239.28;4974039;28;104037;-78
2021/04/04 09:46:03;;;;;;;6.77;4.50;;;;;;;13.11;43.42;99239.47;4983773;28;102523;-77
2021/04/04 09:48:31;;;;;;;7.27;4.40;;;;;;;12.19;43.25;99248.84;4969014;28;103212;-77
2021/04/04 09:51:06;;;;;;;4.70;3.87;;;;;;;14.30;41.65;99229.38;4972993;28;103977;-77
2021/04/04 09:53:39;;;;;;;5.17;3.37;;;;;;;14.70;40.68;99228.88;4956668;28;103658;-77
2021/04/04 09:56:09;;;;;;;7.23;4.17;;;;;;;13.54;42.64;99220.34;4967905;28;102932;-77
2021/04/04 09:58:39;;;;;;;5.47;4.07;;;;;;;12.62;43.08;99228.09;4966849;28;102992;-78
2021/04/04 10:01:15;;;;;;;5.23;3.70;;;;;;;14.05;42.34;99218.97;4948414;28;103902;-77
2021/04/04 10:03:53;;;;;;;5.67;3.70;;;;;;;13.25;42.86;99212.78;4983285;28;104305;-77
2021/04/04 10:06:20;;;;;;;4.93;3.83;;;;;;;12.88;42.02;99224.41;4966854;28;102906;-80
2021/04/04 10:08:56;;;;;;;4.33;3.13;;;;;;;13.77;40.41;99219.44;4955602;28;102991;-77
2021/04/04 10:11:25;;;;;;;4.20;3.20;;;;;;;14.61;39.66;99219.81;4982585;28;104275;-80
2021/04/04 10:17:14;;;;;;;6.47;3.90;;;;;;;14.23;40.11;99216.69;4888642;26;102493;-77
2021/04/04 10:19:53;;;;;;;5.73;3.93;;;;;;;14.22;40.94;99212.34;4923779;28;103516;-79
2021/04/04 10:22:25;;;;;;;6.73;3.83;;;;;;;13.75;42.32;99205.44;4924281;28;104571;-83
2021/04/04 10:24:54;;;;;;;7.30;3.87;;;;;;;13.47;41.88;99201.41;4922184;28;106167;-79
2021/04/04 10:27:25;;;;;;;4.50;3.50;;;;;;;13.05;41.92;99204.59;4942202;28;102634;-80
2021/04/04 10:30:11;;;;;;;4.03;3.13;;;;;;;14.27;41.09;99197.72;4932631;28;102673;-79
2021/04/04 10:58:26;;;;;;;4.83;2.87;;;;;;;15.57;34.48;99180.78;5339461;22;104698;-80
2021/04/04 11:00:54;;;;;;;3.60;2.23;;;;;;;14.59;37.17;99178.38;4988128;28;102333;-81
2021/04/04 11:03:27;;;;;;;3.17;2.60;;;;;;;15.22;35.49;99174.88;4989522;28;101681;-78
2021/04/04 11:05:54;;;;;;;5.20;2.87;;;;;;;15.03;37.55;99170.25;4977222;28;102808;-77
2021/04/04 11:08:22;;;;;;;3.35;2.17;;;;;;;16.05;35.74;99170.38;4976080;28;103291;-75
2021/04/04 11:11:38;;;;;;;3.88;2.90;;;;;;;16.06;36.09;99164.06;5654213;22;105292;-76
2021/04/04 11:14:12;;;;;;;4.25;2.67;;;;;;;15.86;35.29;99164.97;4966891;28;102572;-79
2021/04/04 11:16:56;;;;;;;3.00;2.70;;;;;;;15.62;34.83;99162.59;4970241;28;102533;-78
2021/04/04 11:19:25;;;;;;;4.03;2.28;;;;;;;14.05;35.00;99165.84;4943813;28;102486;-79
2021/04/04 11:21:59;;;;;;;4.20;2.33;;;;;;;15.72;34.37;99155.47;4962094;28;102409;-78
2021/04/04 11:24:39;;;;;;;3.67;2.30;;;;;;;16.54;33.29;99149.09;5060128;22;103132;-78
2021/04/04 11:27:07;;;;;;;4.65;2.42;;;;;;;15.21;36.21;99152.75;4978664;28;103023;-80
2021/04/04 11:29:54;;;;;;;3.85;3.00;;;;;;;14.44;36.67;99146.75;4991718;28;102538;-79
2021/04/04 11:32:27;;;;;;;4.57;2.70;;;;;;;13.26;36.98;99142.84;4980818;28;103279;-77
2021/04/04 11:34:58;;;;;;;4.40;2.10;;;;;;;15.73;35.34;99143.84;4983961;28;102508;-80
2021/04/04 11:37:43;;;;;;;3.45;2.15;;;;;;;16.16;33.82;99144.47;5024495;22;105001;-80
2021/04/04 11:40:21;;;;;;;4.72;3.03;;;;;;;13.47;36.35;99134.19;5455228;22;104816;31
2021/04/04 11:48:55;;;;;;;3.13;2.10;;;;;;;16.38;33.88;99129.22;5177128;22;104019;-78
2021/04/04 11:59:07;;;;;;;5.22;3.10;;;;;;;14.19;35.97;99125.75;5143539;22;104817;-75
2021/04/04 12:01:34;;;;;;;3.17;2.80;;;;;;;13.88;35.85;99121.19;4940186;28;103335;-76
2021/04/04 12:04:21;;;;;;;4.07;2.28;;;;;;;15.39;34.29;99113.91;4942453;28;104571;-77
2021/04/04 12:07:05;;;;;;;7.18;2.80;;;;;;;13.75;35.35;99108.00;4943530;28;103170;-78
2021/04/04 12:09:34;;;;;;;4.32;2.38;;;;;;;15.01;34.41;99114.53;4934125;28;103271;-77
2021/04/04 12:12:03;;;;;;;3.95;2.72;;;;;;;15.94;34.02;99102.03;4942345;28;102962;-75
2021/04/04 12:14:31;;;;;;;4.25;2.80;;;;;;;16.97;32.35;99099.84;4925088;28;106540;-74
2021/04/04 12:16:58;;;;;;;3.67;2.60;;;;;;;16.45;32.94;99098.38;4944005;28;104325;-75
2021/04/04 12:19:27;;;;;;;4.60;2.53;;;;;;;16.72;33.45;99078.09;4942923;28;102982;-79
2021/04/04 12:21:56;;;;;;;4.88;2.65;;;;;;;17.46;31.71;99086.25;4925532;28;102796;-82
2021/04/04 12:24:45;;;;;;;3.92;2.63;;;;;;;17.71;32.32;99085.63;4944626;28;104355;-78
2021/04/04 12:27:14;;;;;;;5.25;2.65;;;;;;;17.68;32.38;99077.94;4941205;28;104313;-83
2021/04/04 12:29:43;;;;;;;5.07;2.58;;;;;;;18.19;32.06;99079.25;4941636;28;102934;-81
2021/04/04 12:32:18;;;;;;;4.20;2.83;;;;;;;17.75;30.90;99067.50;4946254;28;102750;-80
2021/04/04 12:34:47;;;;;;;4.28;2.80;;;;;;;17.08;31.82;99068.50;4945379;28;104471;-77
2021/04/04 12:37:16;;;;;;;3.75;2.25;;;;;;;17.86;31.88;99057.47;4938648;28;104819;-77
2021/04/04 12:39:50;;;;;;;5.63;2.88;;;;;;;17.55;32.09;99056.03;4956609;28;102817;-81
2021/04/04 12:42:19;;;;;;;5.20;2.70;;;;;;;17.80;32.57;99047.34;4940956;28;103323;-79
2021/04/04 12:44:48;;;;;;;3.75;3.00;;;;;;;18.13;31.25;99048.59;4925121;28;103469;-72
2021/04/04 12:47:17;;;;;;;4.25;2.80;;;;;;;17.41;33.43;99045.78;4933899;28;104927;-73
2021/04/04 12:49:52;;;;;;;5.45;2.72;;;;;;;17.60;32.23;99045.75;4940006;28;103102;-73
2021/04/04 12:52:33;;;;;;;3.55;2.70;;;;;;;17.68;31.70;99048.56;4924075;28;103254;-73
2021/04/04 12:55:13;;;;;;;4.25;2.95;;;;;;;17.41;32.07;99051.13;4940952;28;103818;-73
2021/04/04 12:57:41;;;;;;;6.32;3.00;;;;;;;16.56;33.91;99051.09;4940003;28;103907;-78
2021/04/04 13:00:16;;;;;;;5.55;3.20;;;;;;;14.51;36.37;99052.22;4940219;28;103191;-78